createdAt,value
2023-07-22T00:01:47.474Z,100421.08
2023-07-22T00:04:14.234Z,100418.27
2023-07-22T00:06:41.130Z,100416.92
2023-07-22T00:09:10.549Z,100418.70
2023-07-22T00:11:37.740Z,100418.02
2023-07-22T00:14:10.197Z,100411.11
2023-07-22T00:16:38.291Z,100413.14
2023-07-22T00:19:07.858Z,100409.39
2023-07-22T00:21:36.959Z,100402.36
2023-07-22T00:24:05.353Z,100396.49
2023-07-22T00:26:32.160Z,100397.27
2023-07-22T00:28:58.981Z,100392.69
2023-07-22T00:31:28.174Z,100383.73
2023-07-22T00:33:55.433Z,100383.56
2023-07-22T00:36:22.851Z,100384.62
2023-07-22T00:38:50.235Z,100379.39
2023-07-22T00:41:17.155Z,100376.48
2023-07-22T00:43:44.855Z,100369.63
2023-07-22T00:46:11.783Z,100364.84
2023-07-22T00:48:38.893Z,100363.06
2023-07-22T00:51:07.035Z,100363.80
2023-07-22T00:53:35.794Z,100361.92
2023-07-22T00:56:03.078Z,100364.81
2023-07-22T00:58:30.702Z,100365.55
2023-07-22T01:00:57.559Z,100357.02
2023-07-22T01:03:25.861Z,100355.35
2023-07-22T01:05:53.078Z,100356.17
2023-07-22T01:08:21.128Z,100356.27
2023-07-22T01:10:49.158Z,100360.55
2023-07-22T01:13:15.985Z,100361.09
2023-07-22T01:15:43.097Z,100358.67
2023-07-22T01:18:10.331Z,100359.95
2023-07-22T01:20:37.694Z,100358.30
2023-07-22T01:23:04.698Z,100361.65
2023-07-22T01:25:31.513Z,100362.61
2023-07-22T01:28:02.028Z,100365.03
2023-07-22T01:30:29.133Z,100365.94
2023-07-22T01:32:56.390Z,100369.63
2023-07-22T01:35:24.581Z,100372.64
2023-07-22T01:37:53.416Z,100373.64
2023-07-22T01:40:20.248Z,100366.88
2023-07-22T01:42:48.429Z,100371.13
2023-07-22T01:45:15.878Z,100369.86
2023-07-22T01:47:43.477Z,100364.89
2023-07-22T01:50:11.066Z,100369.84
2023-07-22T01:52:38.582Z,100366.50
2023-07-22T01:55:09.189Z,100369.10
2023-07-22T01:57:36.514Z,100366.29
2023-07-22T02:00:05.793Z,100364.02
2023-07-22T02:02:41.122Z,100364.41
2023-07-22T02:05:09.994Z,100360.48
2023-07-22T02:07:39.465Z,100366.77
2023-07-22T02:10:07.262Z,100369.33
2023-07-22T02:12:34.830Z,100370.87
2023-07-22T02:15:03.223Z,100370.85
2023-07-22T02:17:31.442Z,100371.63
2023-07-22T02:19:58.292Z,100377.02
2023-07-22T02:22:25.297Z,100371.89
2023-07-22T02:24:51.993Z,100372.80
2023-07-22T02:27:18.953Z,100377.95
2023-07-22T02:29:45.675Z,100385.66
2023-07-22T02:32:12.414Z,100380.54
2023-07-22T02:34:39.301Z,100384.13
2023-07-22T02:37:06.107Z,100381.01
2023-07-22T02:39:33.179Z,100377.36
2023-07-22T02:42:01.378Z,100374.11
2023-07-22T02:44:28.312Z,100369.23
2023-07-22T02:46:55.314Z,100371.31
2023-07-22T02:49:22.480Z,100374.59
2023-07-22T02:51:49.518Z,100374.89
2023-07-22T02:54:29.855Z,100378.39
2023-07-22T02:56:56.853Z,100381.52
2023-07-22T02:59:23.468Z,100381.09
2023-07-22T03:01:50.426Z,100386.02
2023-07-22T03:04:17.101Z,100384.48
2023-07-22T03:06:44.874Z,100380.70
2023-07-22T03:09:12.026Z,100383.37
2023-07-22T03:11:41.734Z,100380.41
2023-07-22T03:14:09.303Z,100379.13
2023-07-22T03:16:36.631Z,100370.70
2023-07-22T03:19:03.733Z,100371.77
2023-07-22T03:21:31.368Z,100369.05
2023-07-22T03:23:58.171Z,100368.84
2023-07-22T03:26:26.654Z,100367.66
2023-07-22T03:28:54.060Z,100364.49
2023-07-22T03:31:20.923Z,100361.30
2023-07-22T03:33:48.865Z,100357.70
2023-07-22T03:36:16.658Z,100354.69
2023-07-22T03:38:43.526Z,100354.80
2023-07-22T03:41:10.509Z,100348.76
2023-07-22T03:43:37.472Z,100348.52
2023-07-22T03:46:04.454Z,100352.22
2023-07-22T03:48:31.478Z,100356.52
2023-07-22T03:51:08.506Z,100352.15
2023-07-22T03:53:44.321Z,100345.86
2023-07-22T03:56:11.271Z,100339.60
2023-07-22T03:58:38.326Z,100344.73
2023-07-22T04:01:05.335Z,100341.18
2023-07-22T04:03:35.273Z,100345.56
2023-07-22T04:06:02.431Z,100347.16
2023-07-22T04:08:29.773Z,100349.99
2023-07-22T04:10:57.877Z,100354.09
2023-07-22T04:13:25.907Z,100356.12
2023-07-22T04:15:53.680Z,100356.08
2023-07-22T04:18:20.908Z,100352.39
2023-07-22T04:20:51.067Z,100346.02
2023-07-22T04:23:17.919Z,100342.39
2023-07-22T04:25:45.687Z,100345.92
2023-07-22T04:28:12.533Z,100347.40
2023-07-22T04:30:40.486Z,100352.07
2023-07-22T04:33:10.966Z,100348.34
2023-07-22T04:35:38.693Z,100346.05
2023-07-22T04:38:06.169Z,100341.51
2023-07-22T04:40:34.989Z,100341.34
2023-07-22T04:43:03.978Z,100344.91
2023-07-22T04:45:31.130Z,100352.38
2023-07-22T04:47:57.937Z,100353.95
2023-07-22T04:50:24.855Z,100353.54
2023-07-22T04:52:52.445Z,100351.72
2023-07-22T04:55:19.660Z,100347.95
2023-07-22T04:57:46.621Z,100347.59
2023-07-22T05:00:19.778Z,100351.87
2023-07-22T05:02:50.151Z,100351.58
2023-07-22T05:05:17.627Z,100351.34
2023-07-22T05:07:46.026Z,100354.38
2023-07-22T05:10:14.292Z,100353.19
2023-07-22T05:12:41.389Z,100350.59
2023-07-22T05:15:10.822Z,100357.42
2023-07-22T05:17:38.185Z,100355.52
2023-07-22T05:20:15.048Z,100350.70
2023-07-22T05:22:42.464Z,100348.55
2023-07-22T05:25:10.346Z,100337.40
2023-07-22T05:27:40.215Z,100341.91
2023-07-22T05:30:13.347Z,100335.36
2023-07-22T05:32:47.241Z,100331.83
2023-07-22T05:35:14.168Z,100332.13
2023-07-22T05:37:43.564Z,100329.91
2023-07-22T05:40:10.385Z,100331.23
2023-07-22T05:42:37.299Z,100329.20
2023-07-22T05:45:04.587Z,100331.80
2023-07-22T05:47:32.207Z,100333.29
2023-07-22T05:49:59.198Z,100337.27
2023-07-22T05:52:26.005Z,100345.45
2023-07-22T05:54:58.041Z,100347.44
2023-07-22T05:57:24.830Z,100347.98
2023-07-22T06:00:07.022Z,100345.41
2023-07-22T06:02:41.825Z,100350.26
2023-07-22T06:05:08.760Z,100352.94
2023-07-22T06:07:37.569Z,100357.02
2023-07-22T06:10:10.916Z,100353.05
2023-07-22T06:12:42.047Z,100358.84
2023-07-22T06:15:12.236Z,100359.23
2023-07-22T06:17:40.088Z,100367.45
2023-07-22T06:20:08.171Z,100370.84
2023-07-22T06:22:35.248Z,100369.17
2023-07-22T06:25:02.128Z,100366.91
2023-07-22T06:27:29.330Z,100374.21
2023-07-22T06:29:56.390Z,100373.91
2023-07-22T06:32:25.771Z,100370.81
2023-07-22T06:34:52.667Z,100376.85
2023-07-22T06:37:19.672Z,100385.59
2023-07-22T06:39:46.563Z,100389.98
2023-07-22T06:42:13.556Z,100389.98
2023-07-22T06:44:40.445Z,100392.42
2023-07-22T06:47:07.663Z,100393.34
2023-07-22T06:49:35.224Z,100394.94
2023-07-22T06:52:02.614Z,100395.48
2023-07-22T06:54:30.163Z,100395.14
2023-07-22T06:56:56.760Z,100390.76
2023-07-22T06:59:26.876Z,100396.44
2023-07-22T07:01:57.004Z,100399.95
2023-07-22T07:04:25.922Z,100400.08
2023-07-22T07:06:55.666Z,100399.17
2023-07-22T07:09:26.775Z,100397.23
2023-07-22T07:11:58.196Z,100397.91
2023-07-22T07:14:25.480Z,100397.19
2023-07-22T07:16:54.786Z,100391.14
2023-07-22T07:19:21.635Z,100382.70
2023-07-22T07:21:48.515Z,100380.44
2023-07-22T07:24:15.556Z,100382.36
2023-07-22T07:26:42.738Z,100384.63
2023-07-22T07:29:10.127Z,100392.30
2023-07-22T07:31:38.300Z,100386.80
2023-07-22T07:34:07.595Z,100385.77
2023-07-22T07:36:35.003Z,100387.11
2023-07-22T07:39:04.054Z,100385.02
2023-07-22T07:41:31.056Z,100375.88
2023-07-22T07:43:57.945Z,100374.86
2023-07-22T07:46:27.384Z,100374.36
2023-07-22T07:49:00.114Z,100371.79
2023-07-22T07:51:28.315Z,100374.23
2023-07-22T07:53:55.441Z,100370.20
2023-07-22T07:56:23.400Z,100369.57
2023-07-22T07:58:51.197Z,100364.50
2023-07-22T08:01:18.266Z,100365.77
2023-07-22T08:03:49.961Z,100353.81
2023-07-22T08:06:19.803Z,100354.35
2023-07-22T08:08:47.556Z,100355.38
2023-07-22T08:11:14.993Z,100352.27
2023-07-22T08:13:43.659Z,100348.38
2023-07-22T08:16:12.261Z,100344.49
2023-07-22T08:18:40.191Z,100345.80
2023-07-22T08:21:08.314Z,100347.23
2023-07-22T08:23:36.911Z,100352.46
2023-07-22T08:26:06.227Z,100351.17
2023-07-22T08:28:34.586Z,100340.44
2023-07-22T08:31:02.888Z,100338.91
2023-07-22T08:33:40.424Z,100340.19
2023-07-22T08:36:09.259Z,100333.25
2023-07-22T08:38:36.474Z,100332.27
2023-07-22T08:41:03.211Z,100324.11
2023-07-22T08:43:30.794Z,100325.48
2023-07-22T08:46:00.536Z,100324.36
2023-07-22T08:48:34.745Z,100325.84
2023-07-22T08:51:07.412Z,100322.34
2023-07-22T08:53:34.602Z,100326.75
2023-07-22T08:56:02.993Z,100327.16
2023-07-22T08:58:30.758Z,100325.96
2023-07-22T09:00:57.932Z,100326.88
2023-07-22T09:03:29.682Z,100328.80
2023-07-22T09:05:56.668Z,100326.59
2023-07-22T09:08:23.522Z,100325.52
2023-07-22T09:10:51.687Z,100324.59
2023-07-22T09:13:19.452Z,100330.98
2023-07-22T09:15:48.431Z,100331.12
2023-07-22T09:18:16.462Z,100332.56
2023-07-22T09:20:43.387Z,100335.09
2023-07-22T09:23:14.548Z,100336.51
2023-07-22T09:25:42.836Z,100333.89
2023-07-22T09:28:10.175Z,100324.54
2023-07-22T09:30:39.238Z,100321.88
2023-07-22T09:33:08.051Z,100322.30
2023-07-22T09:35:47.971Z,100312.82
2023-07-22T09:38:18.419Z,100309.19
2023-07-22T09:40:45.658Z,100309.88
2023-07-22T09:43:12.914Z,100306.25
2023-07-22T09:45:39.982Z,100299.46
2023-07-22T09:48:07.292Z,100299.09
2023-07-22T09:50:36.175Z,100287.30
2023-07-22T09:53:04.121Z,100274.08
2023-07-22T09:55:32.593Z,100263.36
2023-07-22T09:58:03.913Z,100248.50
2023-07-22T10:00:31.829Z,100247.32
2023-07-22T10:03:05.775Z,100243.95
2023-07-22T10:05:38.940Z,100235.27
2023-07-22T10:08:06.756Z,100230.63
2023-07-22T10:10:39.296Z,100228.04
2023-07-22T10:13:10.551Z,100229.48
2023-07-22T10:15:37.766Z,100226.92
2023-07-22T10:18:06.787Z,100219.96
2023-07-22T10:20:37.300Z,100215.33
2023-07-22T10:23:04.764Z,100209.83
2023-07-22T10:25:32.185Z,100200.02
2023-07-22T10:27:59.716Z,100199.54
2023-07-22T10:30:28.174Z,100198.17
2023-07-22T10:32:56.567Z,100195.48
2023-07-22T10:35:32.528Z,100194.41
2023-07-22T10:38:16.970Z,100197.70
2023-07-22T10:40:49.960Z,100190.92
2023-07-22T10:43:18.595Z,100188.40
2023-07-22T10:45:53.674Z,100191.87
2023-07-22T10:48:27.348Z,100188.59
2023-07-22T10:50:59.446Z,100195.73
2023-07-22T10:53:30.580Z,100191.27
2023-07-22T10:56:06.184Z,100183.26
2023-07-22T10:58:46.916Z,100179.42
2023-07-22T11:01:32.357Z,100178.16
2023-07-22T11:04:08.745Z,100183.14
2023-07-22T11:06:35.991Z,100177.94
2023-07-22T11:09:04.089Z,100183.58
2023-07-22T11:11:39.287Z,100189.02
2023-07-22T11:14:22.535Z,100177.77
2023-07-22T11:16:49.545Z,100178.20
2023-07-22T11:19:17.458Z,100186.94
2023-07-22T11:21:45.060Z,100183.95
2023-07-22T11:24:11.753Z,100181.86
2023-07-22T11:26:40.926Z,100177.15
2023-07-22T11:29:13.261Z,100172.64
2023-07-22T11:31:45.046Z,100172.35
2023-07-22T11:34:19.691Z,100168.30
2023-07-22T11:36:46.577Z,100162.48
2023-07-22T11:39:15.502Z,100156.95
2023-07-22T11:41:45.514Z,100161.14
2023-07-22T11:44:13.889Z,100158.16
2023-07-22T11:46:52.826Z,100160.46
2023-07-22T11:49:26.051Z,100170.08
2023-07-22T11:51:55.725Z,100169.02
2023-07-22T11:54:22.834Z,100168.41
2023-07-22T11:56:49.464Z,100169.09
2023-07-22T11:59:16.539Z,100166.35
2023-07-22T12:01:45.242Z,100160.63
2023-07-22T12:04:15.114Z,100157.36
2023-07-22T12:06:42.177Z,100154.70
2023-07-22T12:09:10.599Z,100152.09
2023-07-22T12:11:37.395Z,100155.33
2023-07-22T12:14:09.533Z,100156.95
2023-07-22T12:16:37.803Z,100143.05
2023-07-22T12:19:04.902Z,100132.30
2023-07-22T12:21:32.391Z,100130.67
2023-07-22T12:23:59.738Z,100129.85
2023-07-22T12:26:26.766Z,100124.58
2023-07-22T12:28:53.570Z,100121.04
2023-07-22T12:31:20.371Z,100121.45
2023-07-22T12:33:47.032Z,100116.14
2023-07-22T12:36:13.645Z,100112.58
2023-07-22T12:38:40.739Z,100109.64
2023-07-22T12:41:07.651Z,100103.91
2023-07-22T12:43:34.627Z,100106.27
2023-07-22T12:46:01.245Z,100109.58
2023-07-22T12:48:28.038Z,100101.54
2023-07-22T12:50:55.258Z,100106.68
2023-07-22T12:53:22.225Z,100103.76
2023-07-22T12:55:49.145Z,100097.98
2023-07-22T12:58:16.303Z,100098.94
2023-07-22T13:00:42.974Z,100103.88
2023-07-22T13:03:09.804Z,100104.60
2023-07-22T13:05:37.011Z,100108.75
2023-07-22T13:08:03.930Z,100111.60
2023-07-22T13:10:32.439Z,100109.65
2023-07-22T13:12:59.136Z,100108.65
2023-07-22T13:15:25.972Z,100107.98
2023-07-22T13:17:52.589Z,100102.32
2023-07-22T13:20:19.702Z,100105.33
2023-07-22T13:22:46.550Z,100102.52
2023-07-22T13:25:13.343Z,100101.34
2023-07-22T13:27:41.226Z,100097.45
2023-07-22T13:30:09.218Z,100090.51
2023-07-22T13:32:38.081Z,100088.34
2023-07-22T13:35:08.534Z,100086.09
2023-07-22T13:37:35.519Z,100080.52
2023-07-22T13:40:05.674Z,100075.75
2023-07-22T13:42:33.144Z,100072.48
2023-07-22T13:44:59.878Z,100068.42
2023-07-22T13:47:28.142Z,100067.08
2023-07-22T13:49:54.882Z,100065.13
2023-07-22T13:52:21.696Z,100063.74
2023-07-22T13:54:48.634Z,100059.23
2023-07-22T13:57:15.393Z,100056.65
2023-07-22T13:59:42.849Z,100049.08
2023-07-22T14:02:09.549Z,100050.45
2023-07-22T14:04:36.506Z,100051.45
2023-07-22T14:07:03.167Z,100053.52
2023-07-22T14:09:30.555Z,100052.91
2023-07-22T14:11:57.490Z,100050.16
2023-07-22T14:14:28.974Z,100048.05
2023-07-22T14:16:56.787Z,100043.92
2023-07-22T14:19:24.600Z,100043.13
2023-07-22T14:21:51.698Z,100038.63
2023-07-22T14:24:18.629Z,100033.65
2023-07-22T14:26:45.382Z,100031.27
2023-07-22T14:29:12.063Z,100029.84
2023-07-22T14:31:38.760Z,100029.52
2023-07-22T14:34:05.539Z,100027.30
2023-07-22T14:36:32.924Z,100022.69
2023-07-22T14:38:59.732Z,100024.52
2023-07-22T14:41:26.805Z,100023.25
2023-07-22T14:43:54.250Z,100021.08
2023-07-22T14:46:21.233Z,100022.73
2023-07-22T14:48:48.409Z,100017.73
2023-07-22T14:51:15.217Z,100018.16
2023-07-22T14:53:41.999Z,100019.91
2023-07-22T14:56:08.710Z,100021.83
2023-07-22T14:58:35.408Z,100019.56
2023-07-22T15:01:03.654Z,100019.74
2023-07-22T15:03:31.538Z,100020.80
2023-07-22T15:05:58.986Z,100012.83
2023-07-22T15:08:25.986Z,100016.50
2023-07-22T15:10:53.295Z,100018.20
2023-07-22T15:13:20.052Z,100021.50
2023-07-22T15:15:47.053Z,100017.29
2023-07-22T15:18:14.072Z,100019.69
2023-07-22T15:20:41.229Z,100023.72
2023-07-22T15:23:08.578Z,100021.39
2023-07-22T15:25:35.608Z,100029.83
2023-07-22T15:28:02.478Z,100031.50
2023-07-22T15:30:29.339Z,100034.21
2023-07-22T15:32:56.055Z,100040.02
2023-07-22T15:35:24.741Z,100042.85
2023-07-22T15:37:53.802Z,100039.80
2023-07-22T15:40:21.308Z,100042.43
2023-07-22T15:42:48.021Z,100032.66
2023-07-22T15:45:15.051Z,100029.86
2023-07-22T15:47:42.197Z,100036.63
2023-07-22T15:50:10.141Z,100032.44
2023-07-22T15:52:39.755Z,100034.33
2023-07-22T15:55:07.577Z,100035.22
2023-07-22T15:57:35.584Z,100034.36
2023-07-22T16:00:06.947Z,100030.98
2023-07-22T16:02:34.274Z,100028.09
2023-07-22T16:05:01.037Z,100024.57
2023-07-22T16:07:29.466Z,100019.39
2023-07-22T16:09:56.357Z,100015.36
2023-07-22T16:12:23.809Z,100013.61
2023-07-22T16:14:50.918Z,100015.73
2023-07-22T16:17:17.559Z,100017.73
2023-07-22T16:19:44.438Z,100014.60
2023-07-22T16:22:11.876Z,100013.86
2023-07-22T16:24:39.438Z,100012.05
2023-07-22T16:27:06.533Z,100012.88
2023-07-22T16:29:35.156Z,100014.48
2023-07-22T16:32:02.106Z,100012.25
2023-07-22T16:34:29.469Z,100011.10
2023-07-22T16:36:57.303Z,100007.02
2023-07-22T16:39:25.160Z,100009.14
2023-07-22T16:41:52.200Z,100007.82
2023-07-22T16:44:18.862Z,100007.64
2023-07-22T16:46:45.885Z,100008.20
2023-07-22T16:49:12.691Z,100015.94
2023-07-22T16:51:39.906Z,100016.20
2023-07-22T16:54:06.714Z,100017.09
2023-07-22T16:56:33.979Z,100023.19
2023-07-22T16:59:00.979Z,100021.66
2023-07-22T17:01:28.214Z,100023.80
2023-07-22T17:03:55.443Z,100022.27
2023-07-22T17:06:22.113Z,100017.60
2023-07-22T17:08:48.774Z,100018.42
2023-07-22T17:11:15.509Z,100017.30
2023-07-22T17:13:42.441Z,100020.23
2023-07-22T17:16:09.472Z,100021.22
2023-07-22T17:18:38.163Z,100024.19
2023-07-22T17:21:04.844Z,100025.02
2023-07-22T17:23:31.834Z,100029.85
2023-07-22T17:25:58.666Z,100036.73
2023-07-22T17:28:25.691Z,100037.80
2023-07-22T17:30:52.518Z,100039.31
2023-07-22T17:33:19.158Z,100041.41
2023-07-22T17:35:46.376Z,100043.93
2023-07-22T17:38:14.416Z,100050.42
2023-07-22T17:40:44.703Z,100042.66
2023-07-22T17:43:11.323Z,100046.12
2023-07-22T17:45:39.379Z,100049.48
2023-07-22T17:48:06.582Z,100050.20
2023-07-22T17:50:33.470Z,100052.91
2023-07-22T17:53:01.294Z,100057.23
2023-07-22T17:55:28.767Z,100057.29
2023-07-22T17:57:55.652Z,100056.29
2023-07-22T18:00:22.310Z,100053.59
2023-07-22T18:02:49.116Z,100050.20
2023-07-22T18:05:16.015Z,100062.66
2023-07-22T18:07:42.891Z,100064.58
2023-07-22T18:10:10.224Z,100058.39
2023-07-22T18:12:36.948Z,100058.16
2023-07-22T18:15:04.226Z,100060.40
2023-07-22T18:17:32.429Z,100062.35
2023-07-22T18:19:59.204Z,100073.77
2023-07-22T18:22:25.861Z,100074.66
2023-07-22T18:24:52.534Z,100080.23
2023-07-22T18:27:20.005Z,100080.12
2023-07-22T18:29:47.154Z,100082.20
2023-07-22T18:32:14.028Z,100080.10
2023-07-22T18:34:43.307Z,100084.35
2023-07-22T18:37:10.161Z,100082.88
2023-07-22T18:39:37.155Z,100085.70
2023-07-22T18:42:04.278Z,100084.26
2023-07-22T18:44:31.812Z,100082.74
2023-07-22T18:46:59.034Z,100082.41
2023-07-22T18:49:26.264Z,100078.23
2023-07-22T18:51:54.876Z,100078.25
2023-07-22T18:54:21.586Z,100079.61
2023-07-22T18:56:48.625Z,100082.00
2023-07-22T18:59:15.410Z,100084.11
2023-07-22T19:01:44.790Z,100084.10
2023-07-22T19:04:11.592Z,100083.92
2023-07-22T19:06:38.615Z,100077.31
2023-07-22T19:09:05.579Z,100082.52
2023-07-22T19:11:32.386Z,100079.43
2023-07-22T19:13:59.763Z,100074.31
2023-07-22T19:16:26.755Z,100078.23
2023-07-22T19:18:53.614Z,100079.65
2023-07-22T19:21:20.474Z,100079.44
2023-07-22T19:23:47.431Z,100079.48
2023-07-22T19:26:14.117Z,100080.94
2023-07-22T19:28:41.955Z,100079.60
2023-07-22T19:31:08.756Z,100076.27
2023-07-22T19:33:35.499Z,100076.14
2023-07-22T19:36:06.505Z,100078.09
2023-07-22T19:38:34.000Z,100086.15
2023-07-22T19:41:07.394Z,100088.19
2023-07-22T19:43:34.962Z,100096.80
2023-07-22T19:46:02.896Z,100101.95
2023-07-22T19:48:30.856Z,100104.66
2023-07-22T19:50:57.766Z,100104.35
2023-07-22T19:53:24.734Z,100090.73
2023-07-22T19:55:51.803Z,100095.50
2023-07-22T19:58:18.864Z,100096.52
2023-07-22T20:00:45.627Z,100095.55
2023-07-22T20:03:14.693Z,100101.39
2023-07-22T20:05:45.645Z,100098.52
2023-07-22T20:08:12.455Z,100099.87
2023-07-22T20:10:39.184Z,100093.70
2023-07-22T20:13:05.940Z,100094.89
2023-07-22T20:15:36.074Z,100095.59
2023-07-22T20:18:03.198Z,100106.00
2023-07-22T20:20:30.528Z,100105.59
2023-07-22T20:22:57.358Z,100113.35
2023-07-22T20:25:24.920Z,100118.17
2023-07-22T20:27:55.204Z,100121.06
2023-07-22T20:30:22.566Z,100118.48
2023-07-22T20:32:49.464Z,100117.73
2023-07-22T20:35:16.394Z,100119.09
2023-07-22T20:37:43.819Z,100116.52
2023-07-22T20:40:11.482Z,100117.88
2023-07-22T20:42:44.060Z,100124.64
2023-07-22T20:45:11.034Z,100132.93
2023-07-22T20:47:38.174Z,100138.46
2023-07-22T20:50:06.063Z,100145.59
2023-07-22T20:52:32.918Z,100142.13
2023-07-22T20:55:00.228Z,100141.65
2023-07-22T20:57:27.010Z,100148.88
2023-07-22T20:59:55.851Z,100150.41
2023-07-22T21:02:22.769Z,100153.92
2023-07-22T21:04:51.148Z,100154.45
2023-07-22T21:07:17.941Z,100161.58
2023-07-22T21:09:44.919Z,100162.73
2023-07-22T21:12:11.803Z,100164.80
2023-07-22T21:14:38.725Z,100162.92
2023-07-22T21:17:05.724Z,100158.82
2023-07-22T21:19:32.772Z,100161.77
2023-07-22T21:22:00.552Z,100162.22
2023-07-22T21:24:27.259Z,100160.88
2023-07-22T21:26:54.167Z,100164.48
2023-07-22T21:29:20.826Z,100165.70
2023-07-22T21:31:48.021Z,100164.39
2023-07-22T21:34:15.742Z,100170.69
2023-07-22T21:36:44.102Z,100171.21
2023-07-22T21:39:11.109Z,100174.02
2023-07-22T21:41:37.835Z,100171.23
2023-07-22T21:44:04.935Z,100175.48
2023-07-22T21:46:32.262Z,100174.73
2023-07-22T21:48:59.311Z,100172.50
2023-07-22T21:51:26.351Z,100177.74
2023-07-22T21:53:53.596Z,100182.33
2023-07-22T21:56:20.394Z,100186.02
2023-07-22T21:58:47.340Z,100189.52
2023-07-22T22:01:14.247Z,100189.02
2023-07-22T22:03:41.150Z,100192.59
2023-07-22T22:06:09.165Z,100194.67
2023-07-22T22:08:36.495Z,100191.27
2023-07-22T22:11:06.738Z,100189.94
2023-07-22T22:13:34.641Z,100187.71
2023-07-22T22:16:01.713Z,100188.32
2023-07-22T22:18:29.985Z,100187.14
2023-07-22T22:20:56.873Z,100186.52
2023-07-22T22:23:23.670Z,100191.16
2023-07-22T22:25:50.332Z,100196.17
2023-07-22T22:28:17.164Z,100204.95
2023-07-22T22:30:43.997Z,100209.09
2023-07-22T22:33:10.614Z,100214.41
2023-07-22T22:35:37.551Z,100220.52
2023-07-22T22:38:04.726Z,100218.42
2023-07-22T22:40:34.561Z,100218.70
2023-07-22T22:43:01.868Z,100217.70
2023-07-22T22:45:29.905Z,100212.27
2023-07-22T22:47:57.053Z,100215.32
2023-07-22T22:50:23.853Z,100212.52
2023-07-22T22:52:50.580Z,100219.30
2023-07-22T22:55:17.440Z,100225.27
2023-07-22T22:57:44.166Z,100227.00
2023-07-22T23:00:11.751Z,100233.63
2023-07-22T23:02:38.553Z,100234.58
2023-07-22T23:05:06.149Z,100225.14
2023-07-22T23:07:32.957Z,100218.79
2023-07-22T23:10:00.742Z,100215.83
2023-07-22T23:12:27.743Z,100221.47
2023-07-22T23:14:54.748Z,100218.31
2023-07-22T23:17:21.909Z,100213.91
2023-07-22T23:19:49.546Z,100214.45
2023-07-22T23:22:16.328Z,100209.81
2023-07-22T23:24:43.128Z,100208.00
2023-07-22T23:27:10.348Z,100204.20
2023-07-22T23:29:38.586Z,100201.71
2023-07-22T23:32:06.130Z,100206.48
2023-07-22T23:34:32.907Z,100202.77
2023-07-22T23:36:59.842Z,100197.47
2023-07-22T23:39:26.780Z,100195.63
2023-07-22T23:41:53.401Z,100193.23
2023-07-22T23:44:20.149Z,100199.19
2023-07-22T23:46:46.828Z,100206.02
2023-07-22T23:49:13.748Z,100216.54
2023-07-22T23:51:40.669Z,100211.39
2023-07-22T23:54:07.291Z,100210.73
2023-07-22T23:56:34.146Z,100213.95
2023-07-22T23:59:01.195Z,100222.48
